Ana Sayfa
METAR-TAF:

METAR-TAF

Havaalanları :

Phillip Goldston

Belize City, Belize

Enlem: 17-32N, Boylam: 088-18W, yükseklik: 5 m

Güncel hava durumu gözlemi

Rapor saat 22:00 UTC de 1 saat ve 5 dakika önce yapıldı.
Rüzgar güneydoğudan 4 kt
Sıcaklık 28°C
Nem 70%
Basınç 1013 hPa
Görüş mesafesi 10 km veya daha fazla
2400 ft yükseklikte az bulutlu

METAR: MZBZ 262200Z 14004KT 9999 FEW024 28/22 A2992 Q1013 NOSIG

Saat: 17:05 (23:05 UTC)

Tahmin

Rapor saat 15:00 UTC de 8 saat ve 5 dakika önce yapıldı.
Ayın 26'si saat 18 UTC'den ayın 27'si saat 18 UTC'ye kadar geçerli Tahmin
Rüzgar doğudan 5 kt
Görüş mesafesi 10 km veya daha fazla
2200 ft yükseklikte az bulutlu
4500 ft yükseklikte parçalı bulutlu
Dönüşüyor
ayın 27'si saat 03 UTC'den ayın 27'si saat 05 UTC'ye kadar
Rüzgar değişken yönden 3 kt

TAF: MZBZ 261500Z 2618/2718 10005KT 9999 FEW022 SCT045 BECMG 2703/2705 VRB03KT

4.000'den fazla havaalanı için hava durumu gözlemleri ve tahminleri (METAR ve TAF raporları).

Kullanılabilir istasyonlar harita üzerinde sarı ve kırmızı noktalarla gösterilir.

İstasyonun adını görmek için fareyi noktanın üzerinde gezdirin.

Sonrasında hava gözlem ve tahminlerini görmek için tıklayın.

Haritayı değiştirmek için: yaklaştırmak için siyah artı işaretli yeşil düğmeye ve uzaklaştırmak için de eksi işaretli düğmeye hızla tıklayın; bitişik haritalar için yeşil okları kullanın.


METAR-TAF: